Time;durP1;ratioP1;P1;durP2;ratioP2;P2;SDS_P1;SDS_P2;PMS_P1;PMS_P2;Temp;Humidity;BMP_temperature;BMP_pressure;BME280_temperature;BME280_humidity;BME280_pressure;Samples;Min_cycle;Max_cycle;Signal;HPM_P1;HPM_P2
2020/12/16 00:00:24;;;;;;;31.55;12.07;;;7.10;78.70;;;;;;4912244;29;20040;-83
2020/12/16 00:02:49;;;;;;;24.67;11.73;;;7.10;78.90;;;;;;4917835;29;20064;-84
2020/12/16 00:05:15;;;;;;;23.80;10.82;;;7.10;79.50;;;;;;4904378;29;20036;-84
2020/12/16 00:07:41;;;;;;;26.17;11.57;;;7.10;78.90;;;;;;4924325;29;20380;-84
2020/12/16 00:10:11;;;;;;;26.67;11.85;;;7.20;79.10;;;;;;4922896;29;20052;-83
2020/12/16 00:12:40;;;;;;;23.58;10.25;;;7.20;79.00;;;;;;4922285;29;20027;-83
2020/12/16 00:15:07;;;;;;;25.63;11.18;;;7.20;78.70;;;;;;4921969;29;20024;-84
2020/12/16 00:17:33;;;;;;;28.40;11.82;;;7.20;78.70;;;;;;4918574;29;20024;-83
2020/12/16 00:19:59;;;;;;;24.98;10.30;;;7.20;78.80;;;;;;4917175;29;20034;-83
2020/12/16 00:22:24;;;;;;;30.45;12.27;;;7.20;78.90;;;;;;4900392;29;20036;-83
2020/12/16 00:24:50;;;;;;;23.90;10.77;;;7.20;78.70;;;;;;4915210;29;20031;-83
2020/12/16 00:27:15;;;;;;;27.20;11.27;;;7.20;79.00;;;;;;4918577;29;20024;-83
2020/12/16 00:29:41;;;;;;;27.35;11.23;;;7.20;78.70;;;;;;4900315;29;20393;-83
2020/12/16 00:32:07;;;;;;;27.15;12.40;;;7.20;78.70;;;;;;4925024;29;20091;-83
2020/12/16 00:34:32;;;;;;;30.90;13.18;;;7.20;78.80;;;;;;4915304;29;20028;-83
2020/12/16 00:36:58;;;;;;;31.83;13.07;;;7.20;78.90;;;;;;4917579;29;20446;-82
2020/12/16 00:39:24;;;;;;;31.85;12.45;;;7.20;78.80;;;;;;4916549;29;20074;-82
2020/12/16 00:41:49;;;;;;;31.30;14.07;;;7.20;78.50;;;;;;4920453;29;20032;-82
2020/12/16 00:44:15;;;;;;;27.33;12.80;;;7.20;78.70;;;;;;4899270;29;20036;-83
2020/12/16 00:46:41;;;;;;;33.05;13.73;;;7.20;78.90;;;;;;4917274;29;20386;-82
2020/12/16 00:49:07;;;;;;;26.70;11.52;;;7.20;79.00;;;;;;4907501;29;20088;-83
2020/12/16 00:51:32;;;;;;;25.33;11.98;;;7.20;78.70;;;;;;4917681;29;20024;-83
2020/12/16 00:53:58;;;;;;;25.73;10.88;;;7.20;78.90;;;;;;4918270;29;20052;-82
2020/12/16 00:56:24;;;;;;;30.15;12.40;;;7.20;79.00;;;;;;4916286;29;20036;-81
2020/12/16 00:58:49;;;;;;;31.80;13.25;;;7.30;78.90;;;;;;4901331;29;20021;-82
2020/12/16 01:01:15;;;;;;;27.58;12.07;;;7.30;78.90;;;;;;4882782;29;20028;-82
2020/12/16 01:03:41;;;;;;;29.15;12.77;;;7.30;78.90;;;;;;4916356;29;20044;-82
2020/12/16 01:06:06;;;;;;;24.60;11.85;;;7.30;78.90;;;;;;4917019;29;20031;-84
2020/12/16 01:08:32;;;;;;;27.88;11.98;;;7.30;78.90;;;;;;4898582;29;20068;-84
2020/12/16 01:10:58;;;;;;;25.48;11.82;;;7.30;78.80;;;;;;4917846;29;20039;-84
2020/12/16 01:13:24;;;;;;;28.58;12.38;;;7.30;78.70;;;;;;4918183;29;20447;-84
2020/12/16 01:15:49;;;;;;;27.42;12.15;;;7.30;79.00;;;;;;4919169;29;20028;-84
2020/12/16 01:18:15;;;;;;;29.05;13.57;;;7.30;78.70;;;;;;4897450;29;20024;-84
2020/12/16 01:20:41;;;;;;;26.30;11.95;;;7.30;78.70;;;;;;4904821;29;20024;-84
2020/12/16 01:23:07;;;;;;;27.90;12.93;;;7.20;78.40;;;;;;4885471;29;20066;-84
2020/12/16 01:25:32;;;;;;;29.45;13.20;;;7.20;78.40;;;;;;4915282;29;20527;-81
2020/12/16 01:28:01;;;;;;;30.75;13.55;;;7.20;78.50;;;;;;4919149;29;20374;-81
2020/12/16 01:30:28;;;;;;;26.98;10.85;;;7.20;78.70;;;;;;4904788;29;20039;-81
2020/12/16 01:32:56;;;;;;;28.27;11.93;;;7.20;78.90;;;;;;4916719;29;20119;-82
2020/12/16 01:35:23;;;;;;;29.75;12.77;;;7.20;78.90;;;;;;4901079;29;20485;-81
2020/12/16 01:37:49;;;;;;;25.27;10.85;;;7.20;78.90;;;;;;4917753;29;20056;-81
2020/12/16 01:40:15;;;;;;;25.65;11.32;;;7.20;79.00;;;;;;4916305;29;20075;-81
2020/12/16 01:42:41;;;;;;;30.20;12.80;;;7.20;79.10;;;;;;4914253;29;20079;-81
2020/12/16 01:45:10;;;;;;;26.58;12.30;;;7.20;78.90;;;;;;4920412;29;20476;-81
2020/12/16 01:47:36;;;;;;;27.90;12.10;;;7.20;78.80;;;;;;4922744;29;20023;-82
2020/12/16 01:50:06;;;;;;;28.13;12.55;;;7.30;78.90;;;;;;4916305;29;20020;-81
2020/12/16 01:52:32;;;;;;;25.63;11.60;;;7.30;78.80;;;;;;4897654;29;20060;-81
2020/12/16 01:54:59;;;;;;;28.52;12.30;;;7.30;78.90;;;;;;4920478;29;20047;-81
2020/12/16 01:57:25;;;;;;;31.23;13.40;;;7.20;78.90;;;;;;4918816;29;20024;-81
2020/12/16 01:59:52;;;;;;;31.08;14.40;;;7.30;78.90;;;;;;4935533;29;20039;-81
2020/12/16 02:02:19;;;;;;;27.73;12.20;;;7.30;78.90;;;;;;4923463;29;20401;-83
2020/12/16 02:04:47;;;;;;;28.63;13.35;;;7.20;78.70;;;;;;4917676;29;20024;-83
2020/12/16 02:07:14;;;;;;;27.10;12.45;;;7.30;79.00;;;;;;4921304;29;20381;-83
2020/12/16 02:09:42;;;;;;;29.77;11.82;;;7.20;78.90;;;;;;4919664;29;20055;-83
2020/12/16 02:12:09;;;;;;;28.52;12.38;;;7.30;79.00;;;;;;4920033;29;20024;-82
2020/12/16 02:14:35;;;;;;;30.80;14.35;;;7.30;78.90;;;;;;4919899;29;20024;-82
2020/12/16 02:17:00;;;;;;;29.88;14.00;;;7.30;78.90;;;;;;4904941;29;20028;-83
2020/12/16 02:19:32;;;;;;;27.55;13.38;;;7.30;78.70;;;;;;4904256;29;20036;-83
2020/12/16 02:21:58;;;;;;;31.30;13.85;;;7.30;78.60;;;;;;4923228;29;20016;-83
2020/12/16 02:24:27;;;;;;;25.58;11.05;;;7.20;78.70;;;;;;4919237;29;20408;-82
2020/12/16 02:26:52;;;;;;;25.75;11.80;;;7.20;78.70;;;;;;4919568;29;20024;-82
2020/12/16 02:29:20;;;;;;;25.92;12.02;;;7.30;78.90;;;;;;4920080;29;20028;-82
2020/12/16 02:31:47;;;;;;;26.25;12.05;;;7.20;78.90;;;;;;4925945;29;20028;-82
2020/12/16 02:34:13;;;;;;;29.15;11.65;;;7.30;78.90;;;;;;4906697;29;20024;-82
2020/12/16 02:36:38;;;;;;;23.00;11.05;;;7.20;78.70;;;;;;4917111;29;20473;-82
2020/12/16 02:39:04;;;;;;;28.17;12.13;;;7.20;78.40;;;;;;4885035;29;20028;-84
2020/12/16 02:41:30;;;;;;;27.73;11.68;;;7.10;78.40;;;;;;4901422;29;20028;-84
2020/12/16 02:43:56;;;;;;;27.73;11.63;;;7.10;78.50;;;;;;4904561;29;20040;-84
2020/12/16 02:46:22;;;;;;;24.58;11.18;;;7.00;78.30;;;;;;4919102;29;20042;-83
2020/12/16 02:48:47;;;;;;;27.88;11.80;;;6.90;78.30;;;;;;4922888;29;20363;-84
2020/12/16 02:51:13;;;;;;;28.80;12.32;;;6.90;78.40;;;;;;4908849;29;20079;-83
2020/12/16 02:53:39;;;;;;;28.38;12.73;;;6.90;78.50;;;;;;4920421;29;20031;-84
2020/12/16 02:56:05;;;;;;;28.17;12.30;;;6.90;78.40;;;;;;4915181;29;20028;-84
2020/12/16 02:58:30;;;;;;;28.20;12.52;;;6.90;78.60;;;;;;4899478;29;20036;-84
2020/12/16 03:00:57;;;;;;;29.73;13.48;;;6.80;78.50;;;;;;4902834;29;20494;-84
2020/12/16 03:03:22;;;;;;;29.95;13.52;;;6.90;78.60;;;;;;4917803;29;20047;-84
2020/12/16 03:05:48;;;;;;;28.50;12.32;;;6.90;78.70;;;;;;4921093;29;20027;-84
2020/12/16 03:08:13;;;;;;;31.38;12.93;;;6.80;78.60;;;;;;4916904;29;20096;-83
2020/12/16 03:10:39;;;;;;;25.35;11.60;;;6.80;78.40;;;;;;4918807;29;20393;-84
2020/12/16 03:13:05;;;;;;;33.58;13.13;;;6.80;78.50;;;;;;4914598;29;20039;-84
2020/12/16 03:15:32;;;;;;;29.83;11.40;;;6.80;78.60;;;;;;4900770;29;20059;-84
2020/12/16 03:17:58;;;;;;;25.98;11.48;;;6.80;78.50;;;;;;4918107;29;20025;-84
2020/12/16 03:20:24;;;;;;;25.75;11.10;;;6.70;78.30;;;;;;4905419;29;20040;-84
2020/12/16 03:22:49;;;;;;;27.63;12.85;;;6.60;78.10;;;;;;4901391;29;20504;-84
2020/12/16 03:25:15;;;;;;;26.17;11.50;;;6.60;78.20;;;;;;4920878;29;20092;-84
2020/12/16 03:27:41;;;;;;;25.98;11.38;;;6.50;78.10;;;;;;4901128;29;20035;-84
2020/12/16 03:30:07;;;;;;;25.98;11.85;;;6.40;78.00;;;;;;4903334;29;20479;-83
2020/12/16 03:32:33;;;;;;;28.13;11.93;;;6.40;78.00;;;;;;4914187;29;20063;-82
2020/12/16 03:34:59;;;;;;;23.45;11.23;;;6.30;77.90;;;;;;4919240;29;20031;-82
2020/12/16 03:37:24;;;;;;;26.52;11.65;;;6.30;78.00;;;;;;4916241;29;20032;-82
2020/12/16 03:39:50;;;;;;;27.63;11.77;;;6.20;78.00;;;;;;4900697;29;20091;-82
2020/12/16 03:42:16;;;;;;;29.90;11.82;;;6.10;78.10;;;;;;4917886;29;20032;-82
2020/12/16 03:44:41;;;;;;;26.58;11.50;;;6.10;78.30;;;;;;4921656;29;20032;-84
2020/12/16 03:47:07;;;;;;;27.75;11.82;;;6.20;78.60;;;;;;4917830;29;20119;-82
2020/12/16 03:49:32;;;;;;;24.40;10.88;;;6.20;78.50;;;;;;4917604;29;20031;-82
2020/12/16 03:51:58;;;;;;;27.13;12.02;;;6.20;78.70;;;;;;4902531;29;20524;-82
2020/12/16 03:54:24;;;;;;;25.27;11.40;;;6.20;78.70;;;;;;4898138;29;20040;-82
2020/12/16 03:56:50;;;;;;;30.65;12.38;;;6.20;78.60;;;;;;4918010;29;20103;-82
2020/12/16 03:59:16;;;;;;;28.65;11.73;;;6.20;78.40;;;;;;4918173;29;20077;-82
2020/12/16 04:01:42;;;;;;;27.58;11.20;;;6.10;78.20;;;;;;4902376;29;20032;-82
2020/12/16 04:04:08;;;;;;;27.55;11.80;;;6.10;78.20;;;;;;4917334;29;20075;-82
2020/12/16 04:06:34;;;;;;;32.72;13.32;;;6.00;78.20;;;;;;4921225;29;20039;-83
2020/12/16 04:09:00;;;;;;;29.17;11.63;;;6.00;78.20;;;;;;4921305;29;20509;-83
2020/12/16 04:11:26;;;;;;;26.70;11.25;;;6.00;78.40;;;;;;4902314;29;20481;-83
2020/12/16 04:13:51;;;;;;;30.33;12.38;;;6.00;78.40;;;;;;4917553;29;20123;-83
2020/12/16 04:16:20;;;;;;;27.70;12.52;;;6.00;78.50;;;;;;4913804;29;20088;-83
2020/12/16 04:18:47;;;;;;;28.02;10.57;;;6.00;78.40;;;;;;4902004;29;20055;-83
2020/12/16 04:21:15;;;;;;;28.10;11.95;;;5.90;78.50;;;;;;4917369;29;20051;-82
2020/12/16 04:23:40;;;;;;;24.63;10.88;;;5.90;78.50;;;;;;4913092;29;20096;-82
2020/12/16 04:26:06;;;;;;;29.40;11.23;;;5.90;78.20;;;;;;4917450;29;20024;-82
2020/12/16 04:28:33;;;;;;;27.30;12.30;;;5.90;78.20;;;;;;4912921;29;20043;-82
2020/12/16 04:30:59;;;;;;;27.88;11.65;;;5.90;78.30;;;;;;4920877;29;20032;-82
2020/12/16 04:33:25;;;;;;;27.35;12.25;;;5.80;78.40;;;;;;4905750;29;20036;-83
2020/12/16 04:35:51;;;;;;;29.17;12.05;;;5.80;78.40;;;;;;4918379;29;20028;-83
2020/12/16 04:38:16;;;;;;;31.58;12.25;;;5.80;78.50;;;;;;4918213;29;20039;-83
2020/12/16 04:40:42;;;;;;;29.35;12.05;;;5.80;78.60;;;;;;4917503;29;20031;-84
2020/12/16 04:43:10;;;;;;;27.90;11.23;;;5.90;78.70;;;;;;4917606;29;20032;-84
2020/12/16 04:45:37;;;;;;;27.70;12.95;;;5.80;78.50;;;;;;4917251;29;20035;-84
2020/12/16 04:48:07;;;;;;;30.83;12.35;;;5.90;78.80;;;;;;4919413;29;20412;-84
2020/12/16 04:50:34;;;;;;;24.63;11.77;;;5.90;78.90;;;;;;4901404;29;20064;-84
2020/12/16 04:53:10;;;;;;;27.25;11.77;;;5.90;78.80;;;;;;4920358;29;20039;-84
2020/12/16 04:55:36;;;;;;;33.35;11.63;;;5.90;78.80;;;;;;4917028;29;20111;-83
2020/12/16 04:58:04;;;;;;;25.08;10.70;;;5.90;78.80;;;;;;4901537;29;20069;-83
2020/12/16 05:00:31;;;;;;;24.77;10.55;;;6.00;79.00;;;;;;4917148;29;20115;-83
2020/12/16 05:02:58;;;;;;;30.27;13.23;;;6.00;79.10;;;;;;4923794;29;20036;-84
2020/12/16 05:05:24;;;;;;;25.63;11.25;;;6.00;78.90;;;;;;4916675;29;20031;-83
2020/12/16 05:07:50;;;;;;;30.60;13.88;;;6.00;78.90;;;;;;4921268;29;20389;-84
2020/12/16 05:10:39;;;;;;;29.98;12.50;;;6.00;78.90;;;;;;4916861;29;20032;-83
2020/12/16 05:13:05;;;;;;;30.08;11.30;;;6.00;79.20;;;;;;4912817;29;20111;-84
2020/12/16 05:15:30;;;;;;;28.63;12.88;;;6.10;79.20;;;;;;4916906;29;20163;-85
2020/12/16 05:18:23;;;;;;;27.17;12.70;;;6.10;78.90;;;;;;4892233;29;20035;-82
2020/12/16 05:20:50;;;;;;;26.17;10.63;;;6.10;78.80;;;;;;4912851;29;20401;-82
2020/12/16 05:23:16;;;;;;;25.33;11.18;;;6.10;79.00;;;;;;4929322;29;20035;-82
2020/12/16 05:26:05;;;;;;;28.67;11.48;;;6.10;78.90;;;;;;4916982;29;20039;-82
2020/12/16 05:28:37;;;;;;;27.63;11.57;;;6.10;79.10;;;;;;4919965;29;20028;-81
2020/12/16 05:31:08;;;;;;;24.55;11.82;;;6.10;79.10;;;;;;4923806;29;20148;-82
2020/12/16 05:33:49;;;;;;;28.38;11.13;;;6.20;79.10;;;;;;4920269;29;20039;-81
2020/12/16 05:36:29;;;;;;;26.45;12.43;;;6.20;79.20;;;;;;4920124;29;20020;-81
2020/12/16 05:38:56;;;;;;;26.73;12.23;;;6.20;79.20;;;;;;4910889;29;20034;-81
2020/12/16 05:41:31;;;;;;;27.90;12.05;;;6.20;79.10;;;;;;4921029;29;20020;-81
2020/12/16 05:44:32;;;;;;;25.98;11.68;;;6.30;79.20;;;;;;4908411;29;20111;-81
2020/12/16 05:47:07;;;;;;;23.38;11.77;;;6.30;79.20;;;;;;4896041;29;20187;-81
2020/12/16 05:49:32;;;;;;;;;;;6.30;79.00;;;;;;4920407;29;20481;-81
2020/12/16 05:52:00;;;;;;;22.13;9.93;;;6.30;78.80;;;;;;4920329;29;19911;-81
2020/12/16 05:54:25;;;;;;;29.20;12.02;;;6.20;78.60;;;;;;4923235;29;20041;-81
2020/12/16 05:57:12;;;;;;;23.35;10.93;;;6.20;78.90;;;;;;4926165;29;20023;-81
2020/12/16 05:59:38;;;;;;;24.67;11.23;;;6.30;79.00;;;;;;4914330;29;20504;-82
2020/12/16 06:02:05;;;;;;;29.52;11.15;;;6.20;79.00;;;;;;4921054;29;20074;-83
2020/12/16 06:04:35;;;;;;;27.88;10.55;;;6.30;79.30;;;;;;4921110;29;20067;-82
2020/12/16 06:07:06;;;;;;;24.52;10.70;;;6.30;79.30;;;;;;4901073;29;20029;-82
2020/12/16 06:09:32;;;;;;;26.48;11.43;;;6.40;79.30;;;;;;4903885;29;20139;-82
2020/12/16 06:12:05;;;;;;;24.73;10.45;;;6.40;79.40;;;;;;4915769;29;20544;-82
2020/12/16 06:14:34;;;;;;;25.05;11.73;;;6.40;79.30;;;;;;4908048;29;20032;-87
2020/12/16 06:17:11;;;;;;;24.63;11.05;;;6.50;79.30;;;;;;4919787;29;20543;-84
2020/12/16 06:19:43;;;;;;;26.38;10.93;;;6.50;79.50;;;;;;4920996;29;20420;-84
2020/12/16 06:22:08;;;;;;;28.35;11.15;;;6.60;79.50;;;;;;4920104;29;20051;-84
2020/12/16 06:24:42;;;;;;;27.35;11.82;;;6.60;79.20;;;;;;4901481;29;20071;-85
2020/12/16 06:27:09;;;;;;;25.70;10.85;;;6.60;79.40;;;;;;4927892;29;20488;-83
2020/12/16 06:29:40;;;;;;;25.00;10.80;;;6.60;79.30;;;;;;4920131;29;20032;-83
2020/12/16 06:32:10;;;;;;;29.17;10.90;;;6.70;79.10;;;;;;4906919;29;20016;-83
2020/12/16 06:34:38;;;;;;;24.42;10.63;;;6.70;79.30;;;;;;4904126;29;20035;-82
2020/12/16 06:37:04;;;;;;;22.45;11.05;;;6.60;79.30;;;;;;4922734;29;20373;-81
2020/12/16 06:39:39;;;;;;;25.65;11.18;;;6.60;79.40;;;;;;4907899;29;20024;-83
2020/12/16 06:42:06;;;;;;;26.60;11.38;;;6.70;79.30;;;;;;4919437;29;20617;-85
2020/12/16 06:44:31;;;;;;;31.45;12.07;;;6.70;79.20;;;;;;4901134;29;20493;-85
2020/12/16 06:46:59;;;;;;;24.75;11.38;;;6.70;79.10;;;;;;4919828;29;20035;-83
2020/12/16 06:49:26;;;;;;;24.75;11.15;;;6.80;79.30;;;;;;4922931;29;20024;-80
2020/12/16 06:51:57;;;;;;;25.83;11.00;;;6.70;79.40;;;;;;4919400;29;20020;-82
2020/12/16 06:54:25;;;;;;;28.67;11.68;;;6.80;79.30;;;;;;4924457;29;20357;-79
2020/12/16 06:57:09;;;;;;;27.73;11.85;;;6.70;78.90;;;;;;4903571;29;20034;-85
2020/12/16 06:59:47;;;;;;;25.77;11.25;;;6.80;79.10;;;;;;4923695;29;20025;-81
2020/12/16 07:02:27;;;;;;;25.63;11.07;;;6.80;79.50;;;;;;4907560;29;20035;-88
2020/12/16 07:14:59;;;;;;;27.67;11.38;;;6.90;79.30;;;;;;5137818;23;20533;-92
2020/12/16 07:18:17;;;;;;;;;;;;;;;;;;;;;
2020/12/16 07:24:02;;;;;;;26.48;11.13;;;6.90;79.30;;;;;;4884706;29;20029;-92
2020/12/16 07:26:51;;;;;;;29.40;11.18;;;6.90;79.20;;;;;;4871536;29;20073;-88
2020/12/16 07:33:28;;;;;;;;;;;;;;;;;;;;;
2020/12/16 07:35:58;;;;;;;27.88;11.05;;;6.90;79.30;;;;;;4883304;29;20073;-90
2020/12/16 07:38:23;;;;;;;31.10;11.13;;;7.00;79.10;;;;;;4873465;29;20037;-92
2020/12/16 07:44:39;;;;;;;;;;;;;;;;;;;;;
2020/12/16 07:47:18;;;;;;;27.85;11.88;;;7.00;79.20;;;;;;4913365;29;20037;-90
2020/12/16 07:50:54;;;;;;;26.95;10.93;;;7.00;79.20;;;;;;4903816;29;20473;-92
2020/12/16 07:54:02;;;;;;;26.67;12.30;;;7.00;79.10;;;;;;4910952;29;20044;-91
2020/12/16 08:51:09;;;;;;;28.42;10.43;;;7.30;79.50;;;;;;4919012;29;20055;-87
2020/12/16 08:54:41;;;;;;;22.73;9.75;;;7.40;79.50;;;;;;4914460;29;20496;-84
2020/12/16 09:04:35;;;;;;;21.85;10.38;;;7.50;79.40;;;;;;4768101;30;20054;-84
2020/12/16 09:07:08;;;;;;;21.08;10.57;;;7.60;79.80;;;;;;4783624;30;20469;-82
2020/12/16 09:09:55;;;;;;;25.77;10.95;;;7.60;79.60;;;;;;4823237;29;20483;-81
2020/12/16 09:12:46;;;;;;;25.60;10.65;;;7.70;79.60;;;;;;4887837;29;20036;-83
2020/12/16 09:15:15;;;;;;;25.70;10.50;;;7.70;79.60;;;;;;4903978;29;20032;-81
2020/12/16 09:17:42;;;;;;;21.40;10.60;;;7.80;80.10;;;;;;4902713;29;20027;-80
2020/12/16 09:20:14;;;;;;;26.50;12.07;;;7.90;79.80;;;;;;4913967;29;20060;-80
2020/12/16 09:22:48;;;;;;;22.60;10.63;;;7.90;79.30;;;;;;4911959;29;20032;-81
2020/12/16 09:25:15;;;;;;;23.63;9.95;;;7.80;79.30;;;;;;4901966;29;20040;-81
2020/12/16 09:27:55;;;;;;;25.23;10.73;;;7.90;79.70;;;;;;4900500;29;20046;-81
2020/12/16 09:30:31;;;;;;;21.55;10.43;;;7.90;79.50;;;;;;4912034;29;20063;-80
2020/12/16 09:33:09;;;;;;;24.02;10.60;;;7.90;79.60;;;;;;4916007;29;20503;-80
2020/12/16 09:35:35;;;;;;;26.02;10.82;;;8.00;79.00;;;;;;4915285;29;20452;-80
2020/12/16 09:38:00;;;;;;;26.05;11.82;;;8.00;79.20;;;;;;4917206;29;20060;-83
2020/12/16 09:40:50;;;;;;;22.00;9.77;;;7.90;79.30;;;;;;4900768;29;20055;-81
2020/12/16 09:43:18;;;;;;;25.33;11.32;;;8.00;80.00;;;;;;4898946;29;20040;-82
2020/12/16 09:45:50;;;;;;;24.80;11.25;;;8.10;79.50;;;;;;4897033;29;20031;-84
2020/12/16 09:48:15;;;;;;;25.25;12.05;;;8.10;79.40;;;;;;4895430;29;20039;-81
2020/12/16 09:50:42;;;;;;;27.88;11.70;;;8.10;79.70;;;;;;4900518;29;20131;-82
2020/12/16 09:53:14;;;;;;;25.25;11.65;;;8.20;79.80;;;;;;4894773;29;20029;-81
2020/12/16 09:55:42;;;;;;;24.58;10.80;;;8.20;79.40;;;;;;4915882;29;20036;-80
2020/12/16 09:58:15;;;;;;;23.67;11.18;;;8.20;79.60;;;;;;4917203;29;20028;-81
2020/12/16 10:00:41;;;;;;;22.05;10.27;;;8.20;79.50;;;;;;4900082;29;20461;-82
2020/12/16 10:03:13;;;;;;;21.30;10.05;;;8.30;79.90;;;;;;4900331;29;20581;-83
2020/12/16 10:05:41;;;;;;;20.75;9.40;;;8.30;80.00;;;;;;4900430;29;20477;-80
2020/12/16 10:08:15;;;;;;;22.35;10.75;;;8.30;79.80;;;;;;4898379;29;20075;-82
2020/12/16 10:10:44;;;;;;;;;;;8.40;79.80;;;;;;4917797;29;20059;-82
2020/12/16 10:13:14;;;;;;;21.65;9.80;;;8.50;80.40;;;;;;4900344;29;20380;-80
2020/12/16 10:15:41;;;;;;;23.60;10.70;;;8.60;80.20;;;;;;4900992;29;20445;-85
2020/12/16 10:18:07;;;;;;;22.10;10.38;;;8.60;79.60;;;;;;4902550;29;20029;-82
2020/12/16 10:20:53;;;;;;;;;;;;;;;;;;;;;
2020/12/16 10:23:27;;;;;;;22.67;9.82;;;8.70;79.90;;;;;;4909548;29;20036;-82
2020/12/16 10:25:57;;;;;;;23.02;11.07;;;8.70;79.70;;;;;;4914531;29;20437;-82
2020/12/16 10:28:51;;;;;;;22.83;10.40;;;8.70;79.70;;;;;;4901302;29;20158;-82
2020/12/16 10:31:40;;;;;;;22.85;10.60;;;8.80;80.20;;;;;;4903965;29;20131;-82
2020/12/16 10:34:50;;;;;;;21.65;9.68;;;9.00;80.50;;;;;;4903497;29;20032;-84
2020/12/16 10:37:46;;;;;;;21.73;10.13;;;9.10;80.20;;;;;;4920381;29;20123;-83
2020/12/16 10:40:42;;;;;;;;;;;;;;;;;;;;;
2020/12/16 10:43:17;;;;;;;25.15;11.80;;;9.40;80.80;;;;;;4918758;29;20040;-85
2020/12/16 10:45:52;;;;;;;21.20;10.68;;;9.60;80.50;;;;;;4903789;29;20024;-85
2020/12/16 10:49:23;;;;;;;21.75;9.95;;;9.70;80.40;;;;;;4905332;29;20083;-85
2020/12/16 11:09:46;;;;;;;18.75;9.05;;;9.80;79.80;;;;;;4863880;29;20064;-83
2020/12/16 11:12:56;;;;;;;22.40;9.45;;;9.80;80.00;;;;;;4876916;29;20569;-83
2020/12/16 11:15:33;;;;;;;19.67;9.55;;;9.80;79.80;;;;;;4864299;29;20046;-83
2020/12/16 11:17:58;;;;;;;19.60;9.10;;;9.80;80.20;;;;;;4864181;29;20144;-82
2020/12/16 11:20:24;;;;;;;20.65;8.57;;;9.90;79.50;;;;;;4879656;29;20147;-82
2020/12/16 11:22:50;;;;;;;20.02;9.60;;;9.80;79.60;;;;;;4874304;29;20145;-82
2020/12/16 11:25:19;;;;;;;19.33;9.68;;;9.80;79.10;;;;;;4920432;29;20381;-86
2020/12/16 11:27:45;;;;;;;19.23;9.40;;;9.80;79.50;;;;;;4903214;29;20107;-86
2020/12/16 11:34:32;;;;;;;20.02;9.68;;;9.90;79.60;;;;;;4894917;29;20036;-83
2020/12/16 11:37:44;;;;;;;19.42;9.32;;;9.80;79.00;;;;;;4898135;29;20042;-84
2020/12/16 11:40:51;;;;;;;18.65;9.18;;;9.80;79.00;;;;;;4916666;29;20036;-83
2020/12/16 11:43:45;;;;;;;18.45;8.63;;;9.70;79.20;;;;;;4865905;29;20044;-83
2020/12/16 11:47:14;;;;;;;;;;;;;;;;;;;;;
2020/12/16 11:55:48;;;;;;;22.58;9.82;;;9.80;79.60;;;;;;4871296;29;20442;-84
2020/12/16 11:58:22;;;;;;;19.42;9.68;;;9.90;79.50;;;;;;4838649;29;20130;-83
2020/12/16 12:07:33;;;;;;;19.05;8.90;;;10.20;79.40;;;;;;4863762;29;20410;-83
2020/12/16 12:10:13;;;;;;;19.80;9.93;;;10.10;79.20;;;;;;4860690;29;20042;-84
2020/12/16 12:13:21;;;;;;;;;;;;;;;;;;;;;
2020/12/16 12:16:40;;;;;;;;;;;;;;;;;;;;;
2020/12/16 12:19:51;;;;;;;18.50;9.18;;;10.30;79.40;;;;;;4881538;29;20095;-84
2020/12/16 12:43:40;;;;;;;;;;;;;;;;;;;;;
2020/12/16 12:47:10;;;;;;;16.90;8.63;;;11.30;79.70;;;;;;4725008;30;20490;-82
2020/12/16 12:59:14;;;;;;;15.30;8.30;;;13.60;82.50;;;;;;4785376;29;20058;-83
2020/12/16 13:02:12;;;;;;;;;;;;;;;;;;;;;
2020/12/16 13:04:51;;;;;;;;;;;;;;;;;;;;;
2020/12/16 13:07:48;;;;;;;16.25;7.95;;;14.00;82.00;;;;;;4932190;29;20031;-82
2020/12/16 13:15:52;;;;;;;;;;;;;;;;;;;;;
2020/12/16 13:22:11;;;;;;;15.85;8.73;;;14.10;77.70;;;;;;4802779;29;20133;-83
2020/12/16 13:25:40;;;;;;;14.30;7.50;;;14.00;78.60;;;;;;4825447;29;20065;-82
2020/12/16 13:28:37;;;;;;;15.52;7.22;;;13.80;78.20;;;;;;4912866;29;20036;-83
2020/12/16 13:34:41;;;;;;;15.98;7.93;;;13.50;77.20;;;;;;4883390;29;20040;-82
2020/12/16 13:37:31;;;;;;;;;;;;;;;;;;;;;
2020/12/16 13:40:15;;;;;;;19.95;8.25;;;13.10;77.90;;;;;;4922030;29;20123;-83
2020/12/16 13:43:21;;;;;;;17.85;8.32;;;12.90;77.80;;;;;;4900948;29;20032;-83
2020/12/16 13:45:47;;;;;;;;;;;12.70;77.70;;;;;;4905886;29;20922;-82
2020/12/16 13:48:15;;;;;;;16.33;8.23;;;12.60;77.90;;;;;;4901212;29;19907;-83
2020/12/16 13:50:54;;;;;;;18.02;8.20;;;12.40;77.50;;;;;;4895672;29;20127;-81
2020/12/16 13:53:20;;;;;;;16.58;8.90;;;12.20;76.70;;;;;;4889323;29;20083;-80
2020/12/16 13:55:48;;;;;;;15.93;8.15;;;12.00;76.70;;;;;;4897553;29;20036;-81
2020/12/16 13:58:28;;;;;;;;;;;;;;;;;;;;;
2020/12/16 14:01:29;;;;;;;22.75;10.48;;;11.90;78.20;;;;;;4901005;29;20030;-82
2020/12/16 14:04:19;;;;;;;21.20;8.98;;;11.80;77.60;;;;;;4888672;29;20051;-82
2020/12/16 14:07:13;;;;;;;16.90;7.40;;;11.70;77.90;;;;;;4903926;29;20381;-82
2020/12/16 14:13:06;;;;;;;;;;;;;;;;;;;;;
2020/12/16 14:19:45;;;;;;;17.48;8.90;;;11.40;77.20;;;;;;4904570;29;20060;-85
2020/12/16 14:22:21;;;;;;;19.85;8.48;;;11.30;77.40;;;;;;4914421;29;20057;-82
2020/12/16 14:29:04;;;;;;;17.15;8.45;;;11.20;77.20;;;;;;4841393;29;20030;-84
2020/12/16 14:36:26;;;;;;;;;;;;;;;;;;;;;
2020/12/16 14:45:42;;;;;;;18.23;8.15;;;11.20;77.90;;;;;;4834081;29;20502;-85
2020/12/16 14:48:07;;;;;;;16.85;8.45;;;11.20;77.30;;;;;;4878563;29;20025;-89
2020/12/16 14:50:33;;;;;;;31.20;14.75;;;11.00;76.90;;;;;;4878804;29;20099;-86
2020/12/16 14:53:27;;;;;;;20.20;10.52;;;11.00;77.30;;;;;;4879185;29;20045;-82
2020/12/16 15:02:45;;;;;;;35.35;22.70;;;10.60;77.20;;;;;;4872998;29;20044;-81
2020/12/16 15:05:11;;;;;;;27.05;15.43;;;10.60;76.90;;;;;;4873759;29;20028;-80
2020/12/16 15:07:37;;;;;;;22.40;12.32;;;10.50;76.80;;;;;;4903175;29;20491;-81
2020/12/16 15:10:04;;;;;;;18.10;9.05;;;10.40;76.70;;;;;;4902788;29;20020;-81
2020/12/16 15:12:30;;;;;;;19.15;9.73;;;10.30;76.10;;;;;;4907340;29;20027;-81
2020/12/16 15:35:49;;;;;;;19.52;9.40;;;9.10;75.90;;;;;;4913465;29;20031;-82
2020/12/16 15:38:17;;;;;;;;;;;8.70;75.80;;;;;;4919917;29;20035;-82
2020/12/16 15:40:48;;;;;;;20.77;9.70;;;8.70;75.60;;;;;;4936595;29;19914;-82
2020/12/16 15:43:14;;;;;;;21.15;9.80;;;8.60;75.60;;;;;;4921119;29;20043;-81
2020/12/16 15:45:44;;;;;;;24.00;11.00;;;8.60;75.80;;;;;;4938582;29;20384;-86
2020/12/16 15:59:15;;;;;;;;;;;;;;;;;;;;;
2020/12/16 16:02:54;;;;;;;;;;;;;;;;;;;;;
2020/12/16 16:05:14;;;;;;;23.63;11.20;;;7.80;75.80;;;;;;4937944;28;20913;-83
2020/12/16 16:07:50;;;;;;;;;;;;;;;;;;;;;
2020/12/16 16:10:17;;;;;;;21.17;11.25;;;7.60;75.90;;;;;;4946331;28;20480;-85
2020/12/16 16:12:43;;;;;;;21.70;10.98;;;7.50;75.90;;;;;;4927200;29;20476;-84
2020/12/16 16:18:17;;;;;;;29.00;13.50;;;7.40;76.00;;;;;;4943345;29;20490;-81
2020/12/16 16:20:43;;;;;;;26.50;13.30;;;7.40;76.10;;;;;;4933794;29;20032;-83
2020/12/16 16:23:08;;;;;;;82.10;37.25;;;7.30;76.00;;;;;;4924305;29;20047;-83
2020/12/16 16:25:34;;;;;;;124.95;50.65;;;7.30;75.90;;;;;;4921081;29;20371;-83
2020/12/16 16:28:05;;;;;;;48.53;25.98;;;7.30;76.00;;;;;;4944029;29;20457;-83
2020/12/16 16:30:48;;;;;;;34.35;19.45;;;7.20;75.80;;;;;;4913305;29;20056;-85
2020/12/16 16:33:14;;;;;;;26.35;14.88;;;7.10;75.90;;;;;;4938178;29;20034;-83
2020/12/16 16:35:39;;;;;;;22.15;11.55;;;7.10;76.10;;;;;;4905014;29;20024;-83
2020/12/16 16:38:33;;;;;;;23.25;11.68;;;7.00;75.90;;;;;;4904640;29;20032;-83
2020/12/16 16:41:25;;;;;;;24.15;10.70;;;6.90;75.80;;;;;;4931388;29;20023;-82
2020/12/16 16:43:52;;;;;;;26.60;12.65;;;6.90;75.80;;;;;;4908312;29;20384;-83
2020/12/16 16:46:44;;;;;;;27.00;12.63;;;6.80;75.60;;;;;;4937328;29;20028;-82
2020/12/16 16:49:27;;;;;;;;;;;;;;;;;;;;;
2020/12/16 16:52:11;;;;;;;24.35;12.45;;;6.60;75.70;;;;;;4921307;29;20043;-82
2020/12/16 16:54:50;;;;;;;27.77;13.35;;;6.50;75.60;;;;;;4904367;29;20039;-82
2020/12/16 16:57:44;;;;;;;26.48;12.68;;;6.40;75.40;;;;;;4925633;29;20031;-83
2020/12/16 17:00:37;;;;;;;25.65;12.10;;;6.40;75.80;;;;;;4932010;29;20028;-83
2020/12/16 17:03:42;;;;;;;23.33;12.00;;;6.30;75.80;;;;;;4875647;29;20041;-83
2020/12/16 17:06:08;;;;;;;29.05;13.50;;;6.30;75.70;;;;;;4877737;29;20025;-83
2020/12/16 17:08:38;;;;;;;30.38;13.82;;;6.20;75.60;;;;;;4909920;29;20034;-85
2020/12/16 17:11:09;;;;;;;26.65;13.38;;;6.10;75.50;;;;;;4920547;29;20031;-83
2020/12/16 17:13:39;;;;;;;24.83;11.40;;;6.00;75.70;;;;;;4920640;29;20027;-84
2020/12/16 17:16:25;;;;;;;24.30;11.65;;;6.10;75.70;;;;;;4941574;29;20062;-83
2020/12/16 17:19:27;;;;;;;;;;;;;;;;;;;;;
2020/12/16 17:26:02;;;;;;;24.15;11.30;;;5.80;75.70;;;;;;4907221;29;20047;-82